Flight Track Log - Related Links

Times and Time Zones

All times are in EDT time to prevent confusion due to time zone crossing. See the VH-LSI flight status page for this flight to view local times or setup timezone preferences in your user account.

Time Position Orientation Groundspeed Altitude Reporting Facility
EDT Latitude Longitude Course Direction KTS MPH feet Rate Location/Type
Sat 02:24:44 AM -33.7130 151.3131 185° South 111 128 1,500  Level Aus ATC (RADAR)
Sat 02:24:59 AM -33.7208 151.3122 185° South 112 129 1,500 240 Level Aus ATC (RADAR)
Sat 02:25:34 AM -33.7373 151.3105 185° South 99 114 1,700 212 Climbing Aus ATC (RADAR)
Sat 02:26:24 AM -33.7278 151.3178 33° Northeast 75 86 1,800  Climbing Aus ATC (RADAR)
Sat 02:26:58 AM -33.7265 151.3028 276° West 98 113 1,700 -67 Descending Aus ATC (RADAR)
Sat 02:27:53 AM -33.7269 151.3121 93° East 83 96 1,700  Level Aus ATC (RADAR)
Sat 02:28:33 AM -33.7380 151.3051 208° Southwest 97 112 1,700  Level Aus ATC (RADAR)
Sat 02:29:28 AM -33.7246 151.3023 350° North 90 104 1,700 71 Level Aus ATC (RADAR)
Sat 02:29:58 AM -33.7232 151.3130 81° East 81 93 1,800 -141 Climbing Aus ATC (RADAR)
Sat 02:30:53 AM -33.7293 151.3004 240° Southwest 99 114 1,500 -171 Descending Aus ATC (RADAR)
Sat 02:31:08 AM -33.7242 151.3026 20° North 82 94 1,600 360 Climbing Aus ATC (RADAR)
Sat 02:31:43 AM -33.7336 151.3110 143° Southeast 91 105 1,800  Climbing Aus ATC (RADAR)
Sat 02:32:38 AM -33.7480 151.2818 239° Southwest 107 123 1,600 -57 Descending Aus ATC (RADAR)
Sat 02:33:28 AM -33.7605 151.2558 240° Southwest 104 120 1,700 63 Climbing Aus ATC (RADAR)
Sat 02:34:13 AM -33.7702 151.2322 244° Southwest 103 119 1,700  Level Aus ATC (RADAR)
Sat 02:34:48 AM -33.7776 151.2169 240° Southwest 89 102 1,700  Level Aus ATC (RADAR)
Sat 02:35:53 AM -33.7903 151.1983 230° Southwest 74 85 1,700  Level Aus ATC (RADAR)
Sat 02:36:23 AM -33.7854 151.1970 347° North 63 72 1,700  Level Aus ATC (RADAR)
Sat 02:37:12 AM -33.7876 151.1942 226° Southwest 65 75 1,700  Level Aus ATC (RADAR)
Sat 02:37:47 AM -33.7950 151.1954 172° South 70 81 1,700 67 Level Aus ATC (RADAR)
Sat 02:38:42 AM -33.7966 151.2180 95° East 76 87 1,800 63 Climbing Aus ATC (RADAR)
Sat 02:39:22 AM -33.7983 151.2361 97° East 83 96 1,800 -218 Level Aus ATC (RADAR)
Sat 02:39:37 AM -33.7988 151.2430 95° East 82 94 1,600 -240 Descending Aus ATC (RADAR)
Sat 02:40:12 AM -33.7989 151.2580 91° East 76 87 1,600 -67 Level Aus ATC (RADAR)
Sat 02:41:07 AM -33.7987 151.2830 89° East 80 92 1,500  Descending Aus ATC (RADAR)
Sat 02:41:42 AM -33.7904 151.2908 38° Northeast 79 91 1,600 71 Climbing Aus ATC (RADAR)
Sat 02:42:32 AM -33.7727 151.2933 North 77 89 1,600  Level Aus ATC (RADAR)
Sat 02:42:47 AM -33.7676 151.2948 14° North 76 87 1,600 -133 Level Aus ATC (RADAR)
Sat 02:43:17 AM -33.7573 151.3002 24° Northeast 81 93 1,500 -200 Descending Aus ATC (RADAR)
Sat 02:46:37 AM -33.7245 151.2034 292° West 1,500  Level Aus ATC (Calculated)
Sat 02:48:00 AM -33.7124 151.1676 292° West  Level FlightAware Approximate
Sat 02:49:00 AM -33.7036 151.1417 292° West  Level FlightAware Approximate
Sat 02:50:00 AM -33.6948 151.1158 292° West  Level FlightAware Approximate
Sat 02:51:00 AM -33.6860 151.0900 292° West  Level FlightAware Approximate
Sat 02:52:00 AM -33.6948 151.1158 112° Southeast  Level FlightAware Approximate
Sat 02:52:16 AM -33.6917 151.1067 360° North 1,500  Level Aus ATC (Calculated)
Sat 02:54:00 AM -33.6514 151.1067 North  Level FlightAware Approximate
Sat 02:55:00 AM -33.6687 151.0881 232° Southwest  Level Estimated
Sat 02:56:00 AM -33.6855 151.0687 224° Southwest  Level FlightAware Approximate
Sat 02:57:00 AM -33.7023 151.0493 224° Southwest  Level FlightAware Approximate
Sat 02:58:00 AM -33.7190 151.0300 224° Southwest  Level FlightAware Approximate
Sat 02:59:00 AM -33.7358 151.0106 224° Southwest  Level FlightAware Approximate
Sat 03:00:00 AM -33.7525 150.9911 224° Southwest  Level FlightAware Approximate
Sat 03:00:19 AM -33.8167 150.9167 360° North  Level Aus ATC (Calculated)
Sat 03:02:00 AM -33.7775 150.9167 North  Level FlightAware Approximate
Sat 03:03:00 AM -33.8008 150.9167 180° South  Level FlightAware Approximate
Sat 03:04:00 AM -33.8196 150.9138 220° Southwest  Level FlightAware Approximate
Sat 03:05:00 AM -33.8373 150.8956 220° Southwest  Level FlightAware Approximate
Sat 03:06:00 AM -33.8550 150.8775 220° Southwest  Level FlightAware Approximate
Sat 03:07:00 AM -33.8727 150.8593 220° Southwest  Level FlightAware Approximate
Sat 03:08:00 AM -33.8904 150.8412 220° Southwest  Level FlightAware Approximate
Sat 03:09:00 AM -33.9081 150.8230 220° Southwest  Level FlightAware Approximate
Sat 03:10:00 AM -33.9259 150.8048 220° Southwest  Level FlightAware Approximate
Sat 03:11:00 AM -33.9436 150.7866 220° Southwest  Level FlightAware Approximate
Sat 03:11:09 AM -34.0402 150.6872 162° South  Level Aus ATC (Calculated)
Sat 03:13:00 AM -34.0403 150.6872 North  Level Estimated
Sat 03:14:00 AM -34.0403 150.6872 348° North  Level Estimated
Sat 03:15:00 AM -34.0403 150.6872 348° North  Level Estimated
Sat 03:16:00 AM -34.0403 150.6872 348° North  Level Estimated
Sat 03:17:00 AM -34.0403 150.6872 220° Southwest  Level Estimated
Sat 03:18:00 AM -34.0403 150.6872 220° Southwest  Level Estimated
Sat 03:19:00 AM -34.0403 150.6872 220° Southwest  Level Estimated
Sat 03:20:00 AM -34.0403 150.6872 220° Southwest  Level Estimated
Sat 03:21:00 AM -34.0403 150.6872 220° Southwest  Level Estimated
Sat 03:22:00 AM -34.0403 150.6872 220° Southwest  Level Estimated
Sat 03:23:00 AM -34.0403 150.6872 220° Southwest  Level Estimated
Sat 03:24:00 AM -34.0403 150.6872 220° Southwest  Level Estimated
Sat 03:25:00 AM -34.0403 150.6872 220° Southwest  Level Estimated

Login

Don't have an account? Register now (free) for customized features, flight alerts, and more!